sensor_id;sensor_type;location;lat;lon;timestamp;P1;durP1;ratioP1;P2;durP2;ratioP2
81864;SDS011;71313;43.514;1.500;2023-12-20T00:00:46;11.93;;;6.65;;
81864;SDS011;71313;43.514;1.500;2023-12-20T00:03:14;10.55;;;6.60;;
81864;SDS011;71313;43.514;1.500;2023-12-20T00:05:40;11.63;;;6.35;;
81864;SDS011;71313;43.514;1.500;2023-12-20T00:08:07;11.48;;;6.13;;
81864;SDS011;71313;43.514;1.500;2023-12-20T00:10:35;9.73;;;5.55;;
81864;SDS011;71313;43.514;1.500;2023-12-20T00:13:01;10.18;;;6.18;;
81864;SDS011;71313;43.514;1.500;2023-12-20T00:15:26;11.00;;;6.00;;
81864;SDS011;71313;43.514;1.500;2023-12-20T00:17:52;10.90;;;5.93;;
81864;SDS011;71313;43.514;1.500;2023-12-20T00:20:17;9.43;;;6.32;;
81864;SDS011;71313;43.514;1.500;2023-12-20T00:22:45;12.77;;;6.38;;
81864;SDS011;71313;43.514;1.500;2023-12-20T00:25:13;11.70;;;6.07;;
81864;SDS011;71313;43.514;1.500;2023-12-20T00:27:39;11.18;;;5.95;;
81864;SDS011;71313;43.514;1.500;2023-12-20T00:30:05;9.90;;;5.80;;
81864;SDS011;71313;43.514;1.500;2023-12-20T00:32:30;11.27;;;5.95;;
81864;SDS011;71313;43.514;1.500;2023-12-20T00:34:59;10.02;;;6.22;;
81864;SDS011;71313;43.514;1.500;2023-12-20T00:37:28;9.35;;;5.93;;
81864;SDS011;71313;43.514;1.500;2023-12-20T00:39:53;8.45;;;5.47;;
81864;SDS011;71313;43.514;1.500;2023-12-20T00:42:20;9.02;;;5.90;;
81864;SDS011;71313;43.514;1.500;2023-12-20T00:44:46;10.77;;;5.55;;
81864;SDS011;71313;43.514;1.500;2023-12-20T00:47:11;11.07;;;6.03;;
81864;SDS011;71313;43.514;1.500;2023-12-20T00:49:39;9.63;;;5.55;;
81864;SDS011;71313;43.514;1.500;2023-12-20T00:52:06;10.23;;;5.70;;
81864;SDS011;71313;43.514;1.500;2023-12-20T00:54:32;10.57;;;5.75;;
81864;SDS011;71313;43.514;1.500;2023-12-20T00:56:59;10.73;;;5.70;;
81864;SDS011;71313;43.514;1.500;2023-12-20T00:59:27;9.18;;;5.75;;
81864;SDS011;71313;43.514;1.500;2023-12-20T01:01:54;8.65;;;5.72;;
81864;SDS011;71313;43.514;1.500;2023-12-20T01:04:21;8.73;;;5.55;;
81864;SDS011;71313;43.514;1.500;2023-12-20T01:06:47;8.52;;;6.03;;
81864;SDS011;71313;43.514;1.500;2023-12-20T01:09:13;8.38;;;5.57;;
81864;SDS011;71313;43.514;1.500;2023-12-20T01:11:38;8.05;;;5.38;;
81864;SDS011;71313;43.514;1.500;2023-12-20T01:14:06;11.35;;;5.63;;
81864;SDS011;71313;43.514;1.500;2023-12-20T01:16:34;8.38;;;5.88;;
81864;SDS011;71313;43.514;1.500;2023-12-20T01:19:02;9.68;;;6.10;;
81864;SDS011;71313;43.514;1.500;2023-12-20T01:21:28;9.95;;;5.55;;
81864;SDS011;71313;43.514;1.500;2023-12-20T01:23:54;8.50;;;5.60;;
81864;SDS011;71313;43.514;1.500;2023-12-20T01:26:19;7.10;;;5.15;;
81864;SDS011;71313;43.514;1.500;2023-12-20T01:28:47;8.82;;;5.13;;
81864;SDS011;71313;43.514;1.500;2023-12-20T01:31:12;9.55;;;5.50;;
81864;SDS011;71313;43.514;1.500;2023-12-20T01:33:41;9.23;;;5.07;;
81864;SDS011;71313;43.514;1.500;2023-12-20T01:36:08;8.52;;;5.57;;
81864;SDS011;71313;43.514;1.500;2023-12-20T01:38:37;7.55;;;5.18;;
81864;SDS011;71313;43.514;1.500;2023-12-20T01:41:02;8.00;;;5.43;;
81864;SDS011;71313;43.514;1.500;2023-12-20T01:43:31;7.63;;;4.95;;
81864;SDS011;71313;43.514;1.500;2023-12-20T01:45:59;8.65;;;5.18;;
81864;SDS011;71313;43.514;1.500;2023-12-20T01:48:25;8.52;;;4.97;;
81864;SDS011;71313;43.514;1.500;2023-12-20T01:50:52;8.73;;;5.30;;
81864;SDS011;71313;43.514;1.500;2023-12-20T01:53:21;7.15;;;5.03;;
81864;SDS011;71313;43.514;1.500;2023-12-20T01:55:50;7.50;;;4.82;;
81864;SDS011;71313;43.514;1.500;2023-12-20T01:58:19;7.03;;;4.95;;
81864;SDS011;71313;43.514;1.500;2023-12-20T02:00:48;6.85;;;4.93;;
81864;SDS011;71313;43.514;1.500;2023-12-20T02:03:16;6.95;;;4.80;;
81864;SDS011;71313;43.514;1.500;2023-12-20T02:05:43;8.02;;;5.15;;
81864;SDS011;71313;43.514;1.500;2023-12-20T02:08:13;7.78;;;4.60;;
81864;SDS011;71313;43.514;1.500;2023-12-20T02:10:41;7.80;;;4.65;;
81864;SDS011;71313;43.514;1.500;2023-12-20T02:13:07;7.90;;;4.95;;
81864;SDS011;71313;43.514;1.500;2023-12-20T02:15:35;6.07;;;4.72;;
81864;SDS011;71313;43.514;1.500;2023-12-20T02:18:03;7.72;;;4.38;;
81864;SDS011;71313;43.514;1.500;2023-12-20T02:20:29;7.43;;;4.60;;
81864;SDS011;71313;43.514;1.500;2023-12-20T02:22:55;5.93;;;4.70;;
81864;SDS011;71313;43.514;1.500;2023-12-20T02:25:20;6.63;;;4.47;;
81864;SDS011;71313;43.514;1.500;2023-12-20T02:27:46;7.78;;;4.50;;
81864;SDS011;71313;43.514;1.500;2023-12-20T02:30:12;8.27;;;4.68;;
81864;SDS011;71313;43.514;1.500;2023-12-20T02:32:40;8.32;;;4.78;;
81864;SDS011;71313;43.514;1.500;2023-12-20T02:35:08;9.70;;;4.55;;
81864;SDS011;71313;43.514;1.500;2023-12-20T02:37:37;6.30;;;4.45;;
81864;SDS011;71313;43.514;1.500;2023-12-20T02:40:06;7.72;;;4.55;;
81864;SDS011;71313;43.514;1.500;2023-12-20T02:42:31;6.70;;;4.28;;
81864;SDS011;71313;43.514;1.500;2023-12-20T02:44:57;7.05;;;4.50;;
81864;SDS011;71313;43.514;1.500;2023-12-20T02:47:24;7.25;;;4.32;;
81864;SDS011;71313;43.514;1.500;2023-12-20T02:49:54;8.90;;;5.22;;
81864;SDS011;71313;43.514;1.500;2023-12-20T02:52:20;7.57;;;4.38;;
81864;SDS011;71313;43.514;1.500;2023-12-20T02:54:48;6.75;;;4.03;;
81864;SDS011;71313;43.514;1.500;2023-12-20T02:57:17;8.07;;;4.40;;
81864;SDS011;71313;43.514;1.500;2023-12-20T02:59:42;8.07;;;5.03;;
81864;SDS011;71313;43.514;1.500;2023-12-20T03:02:08;7.15;;;4.70;;
81864;SDS011;71313;43.514;1.500;2023-12-20T03:04:33;6.78;;;4.63;;
81864;SDS011;71313;43.514;1.500;2023-12-20T03:06:58;7.07;;;4.75;;
81864;SDS011;71313;43.514;1.500;2023-12-20T03:09:24;7.38;;;4.80;;
81864;SDS011;71313;43.514;1.500;2023-12-20T03:11:51;7.13;;;4.43;;
81864;SDS011;71313;43.514;1.500;2023-12-20T03:14:16;6.60;;;4.50;;
81864;SDS011;71313;43.514;1.500;2023-12-20T03:16:42;7.93;;;4.72;;
81864;SDS011;71313;43.514;1.500;2023-12-20T03:19:12;6.30;;;4.40;;
81864;SDS011;71313;43.514;1.500;2023-12-20T03:21:37;7.10;;;4.60;;
81864;SDS011;71313;43.514;1.500;2023-12-20T03:24:03;5.70;;;4.18;;
81864;SDS011;71313;43.514;1.500;2023-12-20T03:26:29;6.80;;;3.97;;
81864;SDS011;71313;43.514;1.500;2023-12-20T03:28:54;6.95;;;4.15;;
81864;SDS011;71313;43.514;1.500;2023-12-20T03:31:19;6.72;;;4.25;;
81864;SDS011;71313;43.514;1.500;2023-12-20T03:33:47;7.20;;;4.10;;
81864;SDS011;71313;43.514;1.500;2023-12-20T03:36:12;7.18;;;4.20;;
81864;SDS011;71313;43.514;1.500;2023-12-20T03:38:40;7.10;;;4.13;;
81864;SDS011;71313;43.514;1.500;2023-12-20T03:41:08;6.03;;;4.10;;
81864;SDS011;71313;43.514;1.500;2023-12-20T03:43:33;6.80;;;4.03;;
81864;SDS011;71313;43.514;1.500;2023-12-20T03:46:01;7.32;;;4.25;;
81864;SDS011;71313;43.514;1.500;2023-12-20T03:48:29;5.78;;;4.30;;
81864;SDS011;71313;43.514;1.500;2023-12-20T03:50:57;7.35;;;4.60;;
81864;SDS011;71313;43.514;1.500;2023-12-20T03:53:25;6.03;;;3.97;;
81864;SDS011;71313;43.514;1.500;2023-12-20T03:55:51;6.18;;;4.07;;
81864;SDS011;71313;43.514;1.500;2023-12-20T03:58:18;6.00;;;4.32;;
81864;SDS011;71313;43.514;1.500;2023-12-20T04:00:47;6.50;;;4.20;;
81864;SDS011;71313;43.514;1.500;2023-12-20T04:03:18;5.78;;;4.40;;
81864;SDS011;71313;43.514;1.500;2023-12-20T04:05:46;6.13;;;4.40;;
81864;SDS011;71313;43.514;1.500;2023-12-20T04:08:14;7.28;;;4.28;;
81864;SDS011;71313;43.514;1.500;2023-12-20T04:10:42;7.57;;;4.50;;
81864;SDS011;71313;43.514;1.500;2023-12-20T04:13:09;6.55;;;4.13;;
81864;SDS011;71313;43.514;1.500;2023-12-20T04:15:35;6.03;;;4.20;;
81864;SDS011;71313;43.514;1.500;2023-12-20T04:18:03;6.75;;;4.18;;
81864;SDS011;71313;43.514;1.500;2023-12-20T04:20:29;7.68;;;4.45;;
81864;SDS011;71313;43.514;1.500;2023-12-20T04:22:56;7.15;;;4.85;;
81864;SDS011;71313;43.514;1.500;2023-12-20T04:25:24;7.43;;;4.32;;
81864;SDS011;71313;43.514;1.500;2023-12-20T04:27:50;7.95;;;5.07;;
81864;SDS011;71313;43.514;1.500;2023-12-20T04:30:18;5.72;;;4.25;;
81864;SDS011;71313;43.514;1.500;2023-12-20T04:32:46;6.57;;;4.30;;
81864;SDS011;71313;43.514;1.500;2023-12-20T04:35:11;6.72;;;4.05;;
81864;SDS011;71313;43.514;1.500;2023-12-20T04:37:37;6.78;;;3.80;;
81864;SDS011;71313;43.514;1.500;2023-12-20T04:40:05;5.10;;;3.95;;
81864;SDS011;71313;43.514;1.500;2023-12-20T04:42:31;5.18;;;3.60;;
81864;SDS011;71313;43.514;1.500;2023-12-20T04:44:56;5.70;;;3.95;;
81864;SDS011;71313;43.514;1.500;2023-12-20T04:47:24;6.28;;;3.72;;
81864;SDS011;71313;43.514;1.500;2023-12-20T04:49:55;4.57;;;3.45;;
81864;SDS011;71313;43.514;1.500;2023-12-20T04:52:21;5.15;;;3.30;;
81864;SDS011;71313;43.514;1.500;2023-12-20T04:54:46;5.78;;;3.70;;
81864;SDS011;71313;43.514;1.500;2023-12-20T04:57:14;6.43;;;3.95;;
81864;SDS011;71313;43.514;1.500;2023-12-20T04:59:40;4.15;;;3.45;;
81864;SDS011;71313;43.514;1.500;2023-12-20T05:02:06;4.28;;;3.00;;
81864;SDS011;71313;43.514;1.500;2023-12-20T05:04:34;4.38;;;2.85;;
81864;SDS011;71313;43.514;1.500;2023-12-20T05:07:04;4.03;;;2.70;;
81864;SDS011;71313;43.514;1.500;2023-12-20T05:09:30;4.38;;;3.00;;
81864;SDS011;71313;43.514;1.500;2023-12-20T05:11:57;3.67;;;2.88;;
81864;SDS011;71313;43.514;1.500;2023-12-20T05:14:25;4.18;;;3.10;;
81864;SDS011;71313;43.514;1.500;2023-12-20T05:16:51;4.03;;;3.00;;
81864;SDS011;71313;43.514;1.500;2023-12-20T05:19:16;4.45;;;3.00;;
81864;SDS011;71313;43.514;1.500;2023-12-20T05:21:41;4.60;;;2.75;;
81864;SDS011;71313;43.514;1.500;2023-12-20T05:24:07;3.90;;;2.65;;
81864;SDS011;71313;43.514;1.500;2023-12-20T05:26:35;4.35;;;2.70;;
81864;SDS011;71313;43.514;1.500;2023-12-20T05:29:03;3.58;;;2.72;;
81864;SDS011;71313;43.514;1.500;2023-12-20T05:31:28;4.10;;;2.60;;
81864;SDS011;71313;43.514;1.500;2023-12-20T05:33:56;4.25;;;2.80;;
81864;SDS011;71313;43.514;1.500;2023-12-20T05:36:23;4.57;;;2.63;;
81864;SDS011;71313;43.514;1.500;2023-12-20T05:38:51;5.38;;;2.60;;
81864;SDS011;71313;43.514;1.500;2023-12-20T05:41:19;3.38;;;2.40;;
81864;SDS011;71313;43.514;1.500;2023-12-20T05:43:46;4.82;;;2.47;;
81864;SDS011;71313;43.514;1.500;2023-12-20T05:46:12;4.15;;;2.30;;
81864;SDS011;71313;43.514;1.500;2023-12-20T05:48:40;3.50;;;2.03;;
81864;SDS011;71313;43.514;1.500;2023-12-20T05:51:08;4.82;;;2.35;;
81864;SDS011;71313;43.514;1.500;2023-12-20T05:53:39;2.85;;;2.00;;
81864;SDS011;71313;43.514;1.500;2023-12-20T05:56:04;2.72;;;1.95;;
81864;SDS011;71313;43.514;1.500;2023-12-20T05:58:30;3.63;;;2.00;;
81864;SDS011;71313;43.514;1.500;2023-12-20T06:00:57;2.85;;;2.08;;
81864;SDS011;71313;43.514;1.500;2023-12-20T06:03:25;3.83;;;2.17;;
81864;SDS011;71313;43.514;1.500;2023-12-20T06:05:53;3.35;;;1.98;;
81864;SDS011;71313;43.514;1.500;2023-12-20T06:08:21;3.25;;;2.00;;
81864;SDS011;71313;43.514;1.500;2023-12-20T06:10:47;3.63;;;2.25;;
81864;SDS011;71313;43.514;1.500;2023-12-20T06:13:14;2.72;;;2.00;;
81864;SDS011;71313;43.514;1.500;2023-12-20T06:15:42;3.47;;;1.90;;
81864;SDS011;71313;43.514;1.500;2023-12-20T06:18:10;3.00;;;1.70;;
81864;SDS011;71313;43.514;1.500;2023-12-20T06:20:36;2.55;;;1.80;;
81864;SDS011;71313;43.514;1.500;2023-12-20T06:23:02;2.58;;;1.55;;
81864;SDS011;71313;43.514;1.500;2023-12-20T06:25:30;2.35;;;1.33;;
81864;SDS011;71313;43.514;1.500;2023-12-20T06:27:55;2.65;;;1.73;;
81864;SDS011;71313;43.514;1.500;2023-12-20T06:30:26;1.95;;;1.33;;
81864;SDS011;71313;43.514;1.500;2023-12-20T06:32:54;2.58;;;1.40;;
81864;SDS011;71313;43.514;1.500;2023-12-20T06:35:22;2.75;;;1.60;;
81864;SDS011;71313;43.514;1.500;2023-12-20T06:37:48;3.28;;;1.80;;
81864;SDS011;71313;43.514;1.500;2023-12-20T06:40:16;2.03;;;1.33;;
81864;SDS011;71313;43.514;1.500;2023-12-20T06:42:47;2.25;;;1.50;;
81864;SDS011;71313;43.514;1.500;2023-12-20T06:45:16;2.42;;;1.48;;
81864;SDS011;71313;43.514;1.500;2023-12-20T06:47:43;3.53;;;1.98;;
81864;SDS011;71313;43.514;1.500;2023-12-20T06:50:09;2.75;;;1.60;;
81864;SDS011;71313;43.514;1.500;2023-12-20T06:52:34;2.20;;;1.40;;
81864;SDS011;71313;43.514;1.500;2023-12-20T06:55:06;3.80;;;2.25;;
81864;SDS011;71313;43.514;1.500;2023-12-20T06:57:37;3.20;;;1.70;;
81864;SDS011;71313;43.514;1.500;2023-12-20T07:00:08;2.97;;;1.60;;
81864;SDS011;71313;43.514;1.500;2023-12-20T07:02:43;3.65;;;2.05;;
81864;SDS011;71313;43.514;1.500;2023-12-20T07:05:12;2.85;;;1.80;;
81864;SDS011;71313;43.514;1.500;2023-12-20T07:07:45;3.00;;;1.80;;
81864;SDS011;71313;43.514;1.500;2023-12-20T07:10:16;3.60;;;1.67;;
81864;SDS011;71313;43.514;1.500;2023-12-20T07:12:48;1.65;;;1.27;;
81864;SDS011;71313;43.514;1.500;2023-12-20T07:15:21;2.85;;;1.67;;
81864;SDS011;71313;43.514;1.500;2023-12-20T07:17:47;2.30;;;1.30;;
81864;SDS011;71313;43.514;1.500;2023-12-20T07:20:18;1.65;;;1.27;;
81864;SDS011;71313;43.514;1.500;2023-12-20T07:22:49;1.73;;;1.00;;
81864;SDS011;71313;43.514;1.500;2023-12-20T07:25:20;2.00;;;1.33;;
81864;SDS011;71313;43.514;1.500;2023-12-20T07:27:46;2.20;;;1.02;;
81864;SDS011;71313;43.514;1.500;2023-12-20T07:30:17;2.30;;;1.10;;
81864;SDS011;71313;43.514;1.500;2023-12-20T07:32:49;1.30;;;0.80;;
81864;SDS011;71313;43.514;1.500;2023-12-20T07:35:18;0.85;;;0.77;;
81864;SDS011;71313;43.514;1.500;2023-12-20T07:37:46;2.25;;;1.10;;
81864;SDS011;71313;43.514;1.500;2023-12-20T07:40:15;1.70;;;0.80;;
81864;SDS011;71313;43.514;1.500;2023-12-20T07:42:46;1.48;;;0.85;;
81864;SDS011;71313;43.514;1.500;2023-12-20T07:45:15;2.53;;;1.75;;
81864;SDS011;71313;43.514;1.500;2023-12-20T07:47:46;2.53;;;1.38;;
81864;SDS011;71313;43.514;1.500;2023-12-20T07:50:18;1.50;;;1.00;;
81864;SDS011;71313;43.514;1.500;2023-12-20T07:52:49;1.40;;;1.20;;
81864;SDS011;71313;43.514;1.500;2023-12-20T07:55:21;2.35;;;1.20;;
81864;SDS011;71313;43.514;1.500;2023-12-20T07:57:52;2.42;;;1.10;;
81864;SDS011;71313;43.514;1.500;2023-12-20T08:00:23;1.90;;;1.20;;
81864;SDS011;71313;43.514;1.500;2023-12-20T08:02:52;2.22;;;1.33;;
81864;SDS011;71313;43.514;1.500;2023-12-20T08:05:23;2.47;;;1.20;;
81864;SDS011;71313;43.514;1.500;2023-12-20T08:07:55;2.03;;;1.50;;
81864;SDS011;71313;43.514;1.500;2023-12-20T08:10:26;2.90;;;1.50;;
81864;SDS011;71313;43.514;1.500;2023-12-20T08:12:58;2.20;;;1.25;;
81864;SDS011;71313;43.514;1.500;2023-12-20T08:15:26;2.60;;;1.50;;
81864;SDS011;71313;43.514;1.500;2023-12-20T08:17:58;2.25;;;1.50;;
81864;SDS011;71313;43.514;1.500;2023-12-20T08:20:29;2.42;;;1.10;;
81864;SDS011;71313;43.514;1.500;2023-12-20T08:23:00;2.00;;;1.20;;
81864;SDS011;71313;43.514;1.500;2023-12-20T08:25:29;2.40;;;1.10;;
81864;SDS011;71313;43.514;1.500;2023-12-20T08:27:57;1.98;;;1.40;;
81864;SDS011;71313;43.514;1.500;2023-12-20T08:30:29;1.80;;;1.17;;
81864;SDS011;71313;43.514;1.500;2023-12-20T08:33:01;2.17;;;1.33;;
81864;SDS011;71313;43.514;1.500;2023-12-20T08:35:32;2.08;;;1.25;;
81864;SDS011;71313;43.514;1.500;2023-12-20T08:38:04;1.73;;;1.38;;
81864;SDS011;71313;43.514;1.500;2023-12-20T08:40:35;2.15;;;1.33;;
81864;SDS011;71313;43.514;1.500;2023-12-20T08:43:06;3.60;;;1.05;;
81864;SDS011;71313;43.514;1.500;2023-12-20T08:45:38;2.22;;;1.15;;
81864;SDS011;71313;43.514;1.500;2023-12-20T08:48:10;3.35;;;1.10;;
81864;SDS011;71313;43.514;1.500;2023-12-20T08:50:38;2.50;;;1.30;;
81864;SDS011;71313;43.514;1.500;2023-12-20T08:53:07;3.33;;;1.40;;
81864;SDS011;71313;43.514;1.500;2023-12-20T08:55:35;1.85;;;1.10;;
81864;SDS011;71313;43.514;1.500;2023-12-20T08:58:07;2.28;;;1.48;;
81864;SDS011;71313;43.514;1.500;2023-12-20T09:00:38;1.70;;;1.17;;
81864;SDS011;71313;43.514;1.500;2023-12-20T09:03:09;2.25;;;1.45;;
81864;SDS011;71313;43.514;1.500;2023-12-20T09:05:38;2.92;;;1.40;;
81864;SDS011;71313;43.514;1.500;2023-12-20T09:08:09;3.25;;;1.48;;
81864;SDS011;71313;43.514;1.500;2023-12-20T09:10:41;2.53;;;1.50;;
81864;SDS011;71313;43.514;1.500;2023-12-20T09:13:12;2.55;;;1.50;;
81864;SDS011;71313;43.514;1.500;2023-12-20T09:15:41;2.05;;;1.58;;
81864;SDS011;71313;43.514;1.500;2023-12-20T09:18:12;2.03;;;1.50;;
81864;SDS011;71313;43.514;1.500;2023-12-20T09:20:43;3.35;;;1.90;;
81864;SDS011;71313;43.514;1.500;2023-12-20T09:23:15;2.92;;;1.85;;
81864;SDS011;71313;43.514;1.500;2023-12-20T09:25:46;3.05;;;1.70;;
81864;SDS011;71313;43.514;1.500;2023-12-20T09:28:18;3.03;;;1.90;;
81864;SDS011;71313;43.514;1.500;2023-12-20T09:30:43;3.20;;;1.65;;
81864;SDS011;71313;43.514;1.500;2023-12-20T09:33:15;2.58;;;1.80;;
81864;SDS011;71313;43.514;1.500;2023-12-20T09:35:47;3.38;;;2.03;;
81864;SDS011;71313;43.514;1.500;2023-12-20T09:38:18;3.85;;;1.98;;
81864;SDS011;71313;43.514;1.500;2023-12-20T09:40:50;3.63;;;2.27;;
81864;SDS011;71313;43.514;1.500;2023-12-20T09:43:24;3.05;;;1.73;;
81864;SDS011;71313;43.514;1.500;2023-12-20T09:45:59;2.90;;;1.73;;
81864;SDS011;71313;43.514;1.500;2023-12-20T09:48:32;3.60;;;2.00;;
81864;SDS011;71313;43.514;1.500;2023-12-20T09:50:58;3.55;;;2.00;;
81864;SDS011;71313;43.514;1.500;2023-12-20T09:53:30;2.42;;;1.60;;
81864;SDS011;71313;43.514;1.500;2023-12-20T09:56:05;2.25;;;1.33;;
81864;SDS011;71313;43.514;1.500;2023-12-20T09:58:39;2.00;;;1.45;;
81864;SDS011;71313;43.514;1.500;2023-12-20T10:01:11;2.80;;;1.40;;
81864;SDS011;71313;43.514;1.500;2023-12-20T10:03:41;1.92;;;1.40;;
81864;SDS011;71313;43.514;1.500;2023-12-20T10:06:10;3.70;;;1.73;;
81864;SDS011;71313;43.514;1.500;2023-12-20T10:08:38;2.10;;;1.33;;
81864;SDS011;71313;43.514;1.500;2023-12-20T10:11:07;3.33;;;1.40;;
81864;SDS011;71313;43.514;1.500;2023-12-20T10:13:39;3.00;;;1.33;;
81864;SDS011;71313;43.514;1.500;2023-12-20T10:16:11;2.30;;;1.30;;
81864;SDS011;71313;43.514;1.500;2023-12-20T10:18:42;4.18;;;1.35;;
81864;SDS011;71313;43.514;1.500;2023-12-20T10:21:11;2.03;;;1.40;;
81864;SDS011;71313;43.514;1.500;2023-12-20T10:23:43;1.58;;;1.08;;
81864;SDS011;71313;43.514;1.500;2023-12-20T10:26:21;2.58;;;1.48;;
81864;SDS011;71313;43.514;1.500;2023-12-20T10:28:59;2.03;;;1.70;;
81864;SDS011;71313;43.514;1.500;2023-12-20T10:31:32;3.78;;;1.52;;
81864;SDS011;71313;43.514;1.500;2023-12-20T10:34:07;4.50;;;2.00;;
81864;SDS011;71313;43.514;1.500;2023-12-20T10:36:35;4.22;;;1.80;;
81864;SDS011;71313;43.514;1.500;2023-12-20T10:39:04;6.38;;;2.75;;
81864;SDS011;71313;43.514;1.500;2023-12-20T10:41:37;4.78;;;2.40;;
81864;SDS011;71313;43.514;1.500;2023-12-20T10:44:10;5.22;;;2.20;;
81864;SDS011;71313;43.514;1.500;2023-12-20T10:46:39;3.10;;;1.70;;
81864;SDS011;71313;43.514;1.500;2023-12-20T10:49:15;2.38;;;1.40;;
81864;SDS011;71313;43.514;1.500;2023-12-20T10:51:43;3.55;;;1.65;;
81864;SDS011;71313;43.514;1.500;2023-12-20T10:54:15;2.75;;;1.83;;
81864;SDS011;71313;43.514;1.500;2023-12-20T10:56:47;2.90;;;1.70;;
81864;SDS011;71313;43.514;1.500;2023-12-20T10:59:19;5.00;;;1.40;;
81864;SDS011;71313;43.514;1.500;2023-12-20T11:01:49;2.03;;;1.55;;
81864;SDS011;71313;43.514;1.500;2023-12-20T11:04:17;2.28;;;1.30;;
81864;SDS011;71313;43.514;1.500;2023-12-20T11:06:49;2.85;;;2.10;;
81864;SDS011;71313;43.514;1.500;2023-12-20T11:11:56;3.50;;;1.98;;
81864;SDS011;71313;43.514;1.500;2023-12-20T11:14:50;3.17;;;1.77;;
81864;SDS011;71313;43.514;1.500;2023-12-20T11:17:20;3.38;;;1.70;;
81864;SDS011;71313;43.514;1.500;2023-12-20T11:22:17;3.70;;;1.80;;
81864;SDS011;71313;43.514;1.500;2023-12-20T11:24:46;2.55;;;1.50;;
81864;SDS011;71313;43.514;1.500;2023-12-20T11:27:12;3.78;;;1.45;;
81864;SDS011;71313;43.514;1.500;2023-12-20T11:29:39;3.17;;;1.85;;
81864;SDS011;71313;43.514;1.500;2023-12-20T11:35:01;2.28;;;1.60;;
81864;SDS011;71313;43.514;1.500;2023-12-20T11:37:42;3.30;;;1.42;;
81864;SDS011;71313;43.514;1.500;2023-12-20T11:40:13;3.95;;;1.48;;
81864;SDS011;71313;43.514;1.500;2023-12-20T11:42:43;5.57;;;1.50;;
81864;SDS011;71313;43.514;1.500;2023-12-20T11:45:17;4.45;;;1.77;;
81864;SDS011;71313;43.514;1.500;2023-12-20T11:47:47;3.05;;;1.40;;
81864;SDS011;71313;43.514;1.500;2023-12-20T11:50:19;7.45;;;1.80;;
81864;SDS011;71313;43.514;1.500;2023-12-20T11:52:45;3.67;;;1.20;;
81864;SDS011;71313;43.514;1.500;2023-12-20T11:55:14;2.15;;;1.10;;
81864;SDS011;71313;43.514;1.500;2023-12-20T11:57:42;4.85;;;1.38;;
81864;SDS011;71313;43.514;1.500;2023-12-20T12:00:10;4.05;;;1.23;;
81864;SDS011;71313;43.514;1.500;2023-12-20T12:02:35;3.95;;;1.20;;
81864;SDS011;71313;43.514;1.500;2023-12-20T12:05:04;3.80;;;1.13;;
81864;SDS011;71313;43.514;1.500;2023-12-20T12:07:32;2.45;;;1.00;;
81864;SDS011;71313;43.514;1.500;2023-12-20T12:10:00;3.80;;;1.30;;
81864;SDS011;71313;43.514;1.500;2023-12-20T12:12:30;3.88;;;1.35;;
81864;SDS011;71313;43.514;1.500;2023-12-20T12:14:58;5.07;;;1.60;;
81864;SDS011;71313;43.514;1.500;2023-12-20T12:17:28;4.47;;;1.50;;
81864;SDS011;71313;43.514;1.500;2023-12-20T12:20:01;4.82;;;1.25;;
81864;SDS011;71313;43.514;1.500;2023-12-20T12:22:30;5.20;;;1.60;;
81864;SDS011;71313;43.514;1.500;2023-12-20T12:25:09;5.13;;;1.20;;
81864;SDS011;71313;43.514;1.500;2023-12-20T12:27:36;2.72;;;1.13;;
81864;SDS011;71313;43.514;1.500;2023-12-20T12:30:10;2.20;;;0.75;;
81864;SDS011;71313;43.514;1.500;2023-12-20T12:32:37;4.50;;;1.20;;
81864;SDS011;71313;43.514;1.500;2023-12-20T12:35:06;3.10;;;1.08;;
81864;SDS011;71313;43.514;1.500;2023-12-20T12:37:34;3.03;;;1.33;;
81864;SDS011;71313;43.514;1.500;2023-12-20T12:40:04;2.22;;;0.90;;
81864;SDS011;71313;43.514;1.500;2023-12-20T12:42:30;2.72;;;0.95;;
81864;SDS011;71313;43.514;1.500;2023-12-20T12:44:58;4.05;;;1.05;;
81864;SDS011;71313;43.514;1.500;2023-12-20T12:47:24;3.75;;;1.08;;
81864;SDS011;71313;43.514;1.500;2023-12-20T12:49:51;4.85;;;1.27;;
81864;SDS011;71313;43.514;1.500;2023-12-20T12:52:19;5.28;;;1.20;;
81864;SDS011;71313;43.514;1.500;2023-12-20T12:54:47;3.40;;;1.10;;
81864;SDS011;71313;43.514;1.500;2023-12-20T12:57:14;1.77;;;0.82;;
81864;SDS011;71313;43.514;1.500;2023-12-20T12:59:43;3.53;;;1.05;;
81864;SDS011;71313;43.514;1.500;2023-12-20T13:02:14;2.50;;;1.30;;
81864;SDS011;71313;43.514;1.500;2023-12-20T13:04:40;4.38;;;1.00;;
81864;SDS011;71313;43.514;1.500;2023-12-20T13:07:09;4.00;;;0.77;;
81864;SDS011;71313;43.514;1.500;2023-12-20T13:09:37;2.90;;;1.00;;
81864;SDS011;71313;43.514;1.500;2023-12-20T13:12:06;2.20;;;0.63;;
81864;SDS011;71313;43.514;1.500;2023-12-20T13:14:33;2.88;;;1.00;;
81864;SDS011;71313;43.514;1.500;2023-12-20T13:16:59;3.97;;;1.38;;
81864;SDS011;71313;43.514;1.500;2023-12-20T13:19:25;4.35;;;0.98;;
81864;SDS011;71313;43.514;1.500;2023-12-20T13:21:53;2.47;;;0.95;;
81864;SDS011;71313;43.514;1.500;2023-12-20T13:24:18;4.05;;;1.00;;
81864;SDS011;71313;43.514;1.500;2023-12-20T13:26:44;3.90;;;1.20;;
81864;SDS011;71313;43.514;1.500;2023-12-20T13:29:12;6.07;;;1.10;;
81864;SDS011;71313;43.514;1.500;2023-12-20T13:31:39;2.92;;;0.93;;
81864;SDS011;71313;43.514;1.500;2023-12-20T13:34:05;1.92;;;1.00;;
81864;SDS011;71313;43.514;1.500;2023-12-20T13:36:31;2.40;;;1.25;;
81864;SDS011;71313;43.514;1.500;2023-12-20T13:39:01;3.90;;;1.13;;
81864;SDS011;71313;43.514;1.500;2023-12-20T13:41:31;4.13;;;1.25;;
81864;SDS011;71313;43.514;1.500;2023-12-20T13:43:56;2.78;;;1.05;;
81864;SDS011;71313;43.514;1.500;2023-12-20T13:46:29;2.35;;;1.33;;
81864;SDS011;71313;43.514;1.500;2023-12-20T13:48:57;2.92;;;1.13;;
81864;SDS011;71313;43.514;1.500;2023-12-20T13:51:26;4.10;;;1.10;;
81864;SDS011;71313;43.514;1.500;2023-12-20T13:53:54;4.78;;;1.15;;
81864;SDS011;71313;43.514;1.500;2023-12-20T13:56:20;2.83;;;1.00;;
81864;SDS011;71313;43.514;1.500;2023-12-20T13:58:48;2.33;;;1.33;;
81864;SDS011;71313;43.514;1.500;2023-12-20T14:01:19;2.90;;;1.33;;
81864;SDS011;71313;43.514;1.500;2023-12-20T14:03:48;5.15;;;1.35;;
81864;SDS011;71313;43.514;1.500;2023-12-20T14:06:16;4.65;;;1.50;;
81864;SDS011;71313;43.514;1.500;2023-12-20T14:08:44;5.05;;;1.30;;
81864;SDS011;71313;43.514;1.500;2023-12-20T14:11:13;3.13;;;1.13;;
81864;SDS011;71313;43.514;1.500;2023-12-20T14:13:40;3.38;;;1.30;;
81864;SDS011;71313;43.514;1.500;2023-12-20T14:16:08;5.65;;;1.75;;
81864;SDS011;71313;43.514;1.500;2023-12-20T14:18:35;3.90;;;1.30;;
81864;SDS011;71313;43.514;1.500;2023-12-20T14:21:05;3.95;;;1.63;;
81864;SDS011;71313;43.514;1.500;2023-12-20T14:23:31;3.47;;;1.30;;
81864;SDS011;71313;43.514;1.500;2023-12-20T14:26:00;3.50;;;1.27;;
81864;SDS011;71313;43.514;1.500;2023-12-20T14:28:27;4.47;;;0.90;;
81864;SDS011;71313;43.514;1.500;2023-12-20T14:30:54;4.18;;;1.00;;
81864;SDS011;71313;43.514;1.500;2023-12-20T14:33:21;5.47;;;1.50;;
81864;SDS011;71313;43.514;1.500;2023-12-20T14:35:50;3.47;;;1.80;;
81864;SDS011;71313;43.514;1.500;2023-12-20T14:38:19;6.35;;;1.52;;
81864;SDS011;71313;43.514;1.500;2023-12-20T14:40:45;3.13;;;1.15;;
81864;SDS011;71313;43.514;1.500;2023-12-20T14:43:10;5.47;;;1.40;;
81864;SDS011;71313;43.514;1.500;2023-12-20T14:45:36;2.88;;;1.08;;
81864;SDS011;71313;43.514;1.500;2023-12-20T14:48:02;4.32;;;1.00;;
81864;SDS011;71313;43.514;1.500;2023-12-20T14:50:28;2.08;;;0.90;;
81864;SDS011;71313;43.514;1.500;2023-12-20T14:52:53;5.07;;;1.20;;
81864;SDS011;71313;43.514;1.500;2023-12-20T14:55:24;2.65;;;1.10;;
81864;SDS011;71313;43.514;1.500;2023-12-20T14:57:54;3.63;;;1.40;;
81864;SDS011;71313;43.514;1.500;2023-12-20T15:00:22;3.60;;;1.17;;
81864;SDS011;71313;43.514;1.500;2023-12-20T15:02:47;3.35;;;1.20;;